sensor_id;sensor_type;location;lat;lon;timestamp;temperature;humidity
54260;DHT22;40172;53.022;7.012;2023-04-06T00:01:40;0.50;99.90
54260;DHT22;40172;53.022;7.012;2023-04-06T00:04:06;0.50;99.90
54260;DHT22;40172;53.022;7.012;2023-04-06T00:06:32;0.40;99.90
54260;DHT22;40172;53.022;7.012;2023-04-06T00:08:59;0.40;99.90
54260;DHT22;40172;53.022;7.012;2023-04-06T00:11:24;0.40;99.90
54260;DHT22;40172;53.022;7.012;2023-04-06T00:13:51;0.80;99.90
54260;DHT22;40172;53.022;7.012;2023-04-06T00:16:17;0.40;99.90
54260;DHT22;40172;53.022;7.012;2023-04-06T00:18:42;0.40;99.90
54260;DHT22;40172;53.022;7.012;2023-04-06T00:21:11;0.60;99.90
54260;DHT22;40172;53.022;7.012;2023-04-06T00:23:36;0.30;99.90
54260;DHT22;40172;53.022;7.012;2023-04-06T00:26:02;0.30;99.90
54260;DHT22;40172;53.022;7.012;2023-04-06T00:28:27;0.30;99.90
54260;DHT22;40172;53.022;7.012;2023-04-06T00:30:55;0.30;99.90
54260;DHT22;40172;53.022;7.012;2023-04-06T00:33:21;0.40;99.90
54260;DHT22;40172;53.022;7.012;2023-04-06T00:35:47;0.30;99.90
54260;DHT22;40172;53.022;7.012;2023-04-06T00:38:14;0.30;99.90
54260;DHT22;40172;53.022;7.012;2023-04-06T00:40:40;0.30;99.90
54260;DHT22;40172;53.022;7.012;2023-04-06T00:43:06;0.30;99.90
54260;DHT22;40172;53.022;7.012;2023-04-06T00:45:32;0.30;99.90
54260;DHT22;40172;53.022;7.012;2023-04-06T00:47:58;0.30;99.90
54260;DHT22;40172;53.022;7.012;2023-04-06T00:50:24;0.20;99.90
54260;DHT22;40172;53.022;7.012;2023-04-06T00:52:50;0.20;99.90
54260;DHT22;40172;53.022;7.012;2023-04-06T00:55:17;0.20;99.90
54260;DHT22;40172;53.022;7.012;2023-04-06T00:57:42;0.80;99.90
54260;DHT22;40172;53.022;7.012;2023-04-06T01:00:08;0.10;99.90
54260;DHT22;40172;53.022;7.012;2023-04-06T01:02:34;0.10;99.90
54260;DHT22;40172;53.022;7.012;2023-04-06T01:04:59;0.20;99.90
54260;DHT22;40172;53.022;7.012;2023-04-06T01:07:25;1.10;99.90
54260;DHT22;40172;53.022;7.012;2023-04-06T01:09:56;0.10;99.90
54260;DHT22;40172;53.022;7.012;2023-04-06T01:12:21;0.20;99.90
54260;DHT22;40172;53.022;7.012;2023-04-06T01:14:47;0.40;99.90
54260;DHT22;40172;53.022;7.012;2023-04-06T01:17:13;0.20;99.90
54260;DHT22;40172;53.022;7.012;2023-04-06T01:19:39;0.20;99.90
54260;DHT22;40172;53.022;7.012;2023-04-06T01:25:04;0.10;99.90
54260;DHT22;40172;53.022;7.012;2023-04-06T01:27:29;0.10;99.90
54260;DHT22;40172;53.022;7.012;2023-04-06T01:29:55;0.10;99.90
54260;DHT22;40172;53.022;7.012;2023-04-06T01:32:21;0.10;99.90
54260;DHT22;40172;53.022;7.012;2023-04-06T01:34:47;0.10;99.90
54260;DHT22;40172;53.022;7.012;2023-04-06T01:37:12;0.10;99.90
54260;DHT22;40172;53.022;7.012;2023-04-06T01:39:38;0.00;99.90
54260;DHT22;40172;53.022;7.012;2023-04-06T01:42:03;0.00;99.90
54260;DHT22;40172;53.022;7.012;2023-04-06T01:44:29;0.00;99.90
54260;DHT22;40172;53.022;7.012;2023-04-06T01:46:56;0.00;99.90
54260;DHT22;40172;53.022;7.012;2023-04-06T01:49:22;0.00;99.90
54260;DHT22;40172;53.022;7.012;2023-04-06T01:51:47;-0.10;99.90
54260;DHT22;40172;53.022;7.012;2023-04-06T01:54:13;-0.10;99.90
54260;DHT22;40172;53.022;7.012;2023-04-06T01:56:38;-0.10;99.90
54260;DHT22;40172;53.022;7.012;2023-04-06T01:59:04;-0.20;99.90
54260;DHT22;40172;53.022;7.012;2023-04-06T02:01:30;-0.20;99.90
54260;DHT22;40172;53.022;7.012;2023-04-06T02:03:55;-0.20;99.90
54260;DHT22;40172;53.022;7.012;2023-04-06T02:06:21;-0.20;99.90
54260;DHT22;40172;53.022;7.012;2023-04-06T02:08:46;-0.30;99.90
54260;DHT22;40172;53.022;7.012;2023-04-06T02:11:12;-0.30;99.90
54260;DHT22;40172;53.022;7.012;2023-04-06T02:13:37;-0.30;99.90
54260;DHT22;40172;53.022;7.012;2023-04-06T02:16:03;-0.40;99.90
54260;DHT22;40172;53.022;7.012;2023-04-06T02:18:30;-0.40;99.90
54260;DHT22;40172;53.022;7.012;2023-04-06T02:20:56;-0.40;99.90
54260;DHT22;40172;53.022;7.012;2023-04-06T02:23:22;-0.40;99.90
54260;DHT22;40172;53.022;7.012;2023-04-06T02:25:47;-0.50;99.90
54260;DHT22;40172;53.022;7.012;2023-04-06T02:28:13;-0.50;99.90
54260;DHT22;40172;53.022;7.012;2023-04-06T02:30:39;-0.50;99.90
54260;DHT22;40172;53.022;7.012;2023-04-06T02:33:05;-0.50;99.90
54260;DHT22;40172;53.022;7.012;2023-04-06T02:35:31;-0.20;99.90
54260;DHT22;40172;53.022;7.012;2023-04-06T02:37:57;-0.60;99.90
54260;DHT22;40172;53.022;7.012;2023-04-06T02:40:22;-0.60;99.90
54260;DHT22;40172;53.022;7.012;2023-04-06T02:42:48;-0.60;99.90
54260;DHT22;40172;53.022;7.012;2023-04-06T02:45:14;-0.60;99.90
54260;DHT22;40172;53.022;7.012;2023-04-06T02:47:39;-0.60;99.90
54260;DHT22;40172;53.022;7.012;2023-04-06T02:50:05;-0.70;99.90
54260;DHT22;40172;53.022;7.012;2023-04-06T02:52:31;-0.60;99.90
54260;DHT22;40172;53.022;7.012;2023-04-06T02:54:57;-0.30;99.90
54260;DHT22;40172;53.022;7.012;2023-04-06T02:57:22;-0.70;99.90
54260;DHT22;40172;53.022;7.012;2023-04-06T02:59:48;-0.70;99.90
54260;DHT22;40172;53.022;7.012;2023-04-06T03:02:13;-0.70;99.90
54260;DHT22;40172;53.022;7.012;2023-04-06T03:04:39;-0.80;99.90
54260;DHT22;40172;53.022;7.012;2023-04-06T03:07:05;-0.80;99.90
54260;DHT22;40172;53.022;7.012;2023-04-06T03:09:30;-0.60;99.90
54260;DHT22;40172;53.022;7.012;2023-04-06T03:11:56;-0.80;99.90
54260;DHT22;40172;53.022;7.012;2023-04-06T03:14:21;-0.90;99.90
54260;DHT22;40172;53.022;7.012;2023-04-06T03:16:50;-0.90;99.90
54260;DHT22;40172;53.022;7.012;2023-04-06T03:19:16;-0.90;99.90
54260;DHT22;40172;53.022;7.012;2023-04-06T03:21:41;-0.90;99.90
54260;DHT22;40172;53.022;7.012;2023-04-06T03:24:07;-0.60;99.90
54260;DHT22;40172;53.022;7.012;2023-04-06T03:26:33;-1.00;99.90
54260;DHT22;40172;53.022;7.012;2023-04-06T03:28:59;-1.00;99.90
54260;DHT22;40172;53.022;7.012;2023-04-06T03:31:25;-1.00;99.90
54260;DHT22;40172;53.022;7.012;2023-04-06T03:33:50;-1.00;99.90
54260;DHT22;40172;53.022;7.012;2023-04-06T03:36:16;-1.10;99.90
54260;DHT22;40172;53.022;7.012;2023-04-06T03:38:41;-1.10;99.90
54260;DHT22;40172;53.022;7.012;2023-04-06T03:41:07;-1.10;99.90
54260;DHT22;40172;53.022;7.012;2023-04-06T03:43:32;-1.10;99.90
54260;DHT22;40172;53.022;7.012;2023-04-06T03:45:58;-1.10;99.90
54260;DHT22;40172;53.022;7.012;2023-04-06T03:48:24;-1.20;99.90
54260;DHT22;40172;53.022;7.012;2023-04-06T03:50:49;-1.20;99.90
54260;DHT22;40172;53.022;7.012;2023-04-06T03:53:15;-1.20;99.90
54260;DHT22;40172;53.022;7.012;2023-04-06T03:55:41;-1.20;99.90
54260;DHT22;40172;53.022;7.012;2023-04-06T03:58:06;-1.30;99.90
54260;DHT22;40172;53.022;7.012;2023-04-06T04:00:32;-1.30;99.90
54260;DHT22;40172;53.022;7.012;2023-04-06T04:02:58;-1.30;99.90
54260;DHT22;40172;53.022;7.012;2023-04-06T04:05:24;-1.30;99.90
54260;DHT22;40172;53.022;7.012;2023-04-06T04:07:51;-1.40;99.90
54260;DHT22;40172;53.022;7.012;2023-04-06T04:10:17;-1.40;99.90
54260;DHT22;40172;53.022;7.012;2023-04-06T04:12:43;-1.40;99.90
54260;DHT22;40172;53.022;7.012;2023-04-06T04:15:08;-1.40;99.90
54260;DHT22;40172;53.022;7.012;2023-04-06T04:17:34;-1.50;99.90
54260;DHT22;40172;53.022;7.012;2023-04-06T04:20:00;-1.50;99.90
54260;DHT22;40172;53.022;7.012;2023-04-06T04:22:25;-1.50;99.90
54260;DHT22;40172;53.022;7.012;2023-04-06T04:24:53;-1.50;99.90
54260;DHT22;40172;53.022;7.012;2023-04-06T04:27:19;-1.50;99.90
54260;DHT22;40172;53.022;7.012;2023-04-06T04:29:44;-1.50;99.90
54260;DHT22;40172;53.022;7.012;2023-04-06T04:32:10;-1.50;99.90
54260;DHT22;40172;53.022;7.012;2023-04-06T04:34:36;-1.50;99.90
54260;DHT22;40172;53.022;7.012;2023-04-06T04:37:01;-1.50;99.90
54260;DHT22;40172;53.022;7.012;2023-04-06T04:39:27;-1.60;99.90
54260;DHT22;40172;53.022;7.012;2023-04-06T04:41:52;-1.60;99.90
54260;DHT22;40172;53.022;7.012;2023-04-06T04:44:19;-1.60;99.90
54260;DHT22;40172;53.022;7.012;2023-04-06T04:46:45;-1.70;99.90
54260;DHT22;40172;53.022;7.012;2023-04-06T04:49:10;-1.60;99.90
54260;DHT22;40172;53.022;7.012;2023-04-06T04:51:36;-1.60;99.90
54260;DHT22;40172;53.022;7.012;2023-04-06T04:54:02;-1.60;99.90
54260;DHT22;40172;53.022;7.012;2023-04-06T04:56:27;-1.20;99.90
54260;DHT22;40172;53.022;7.012;2023-04-06T04:58:54;-1.60;99.90
54260;DHT22;40172;53.022;7.012;2023-04-06T05:01:19;-1.60;99.90
54260;DHT22;40172;53.022;7.012;2023-04-06T05:03:46;-1.60;99.90
54260;DHT22;40172;53.022;7.012;2023-04-06T05:06:11;-1.60;99.90
54260;DHT22;40172;53.022;7.012;2023-04-06T05:08:37;-1.60;99.90
54260;DHT22;40172;53.022;7.012;2023-04-06T05:11:02;-1.30;99.90
54260;DHT22;40172;53.022;7.012;2023-04-06T05:13:29;-1.50;99.90
54260;DHT22;40172;53.022;7.012;2023-04-06T05:15:55;-1.50;99.90
54260;DHT22;40172;53.022;7.012;2023-04-06T05:18:21;-1.40;99.90
54260;DHT22;40172;53.022;7.012;2023-04-06T05:20:47;-1.40;99.90
54260;DHT22;40172;53.022;7.012;2023-04-06T05:23:13;-1.30;99.90
54260;DHT22;40172;53.022;7.012;2023-04-06T05:25:39;-1.30;99.90
54260;DHT22;40172;53.022;7.012;2023-04-06T05:28:04;-1.20;99.90
54260;DHT22;40172;53.022;7.012;2023-04-06T05:30:30;-1.20;99.90
54260;DHT22;40172;53.022;7.012;2023-04-06T05:32:56;-1.10;99.90
54260;DHT22;40172;53.022;7.012;2023-04-06T05:35:21;-1.10;99.90
54260;DHT22;40172;53.022;7.012;2023-04-06T05:37:47;-1.10;99.90
54260;DHT22;40172;53.022;7.012;2023-04-06T05:40:13;-1.00;99.90
54260;DHT22;40172;53.022;7.012;2023-04-06T05:42:42;-1.00;99.90
54260;DHT22;40172;53.022;7.012;2023-04-06T05:45:11;-1.00;99.90
54260;DHT22;40172;53.022;7.012;2023-04-06T05:47:42;-1.00;99.90
54260;DHT22;40172;53.022;7.012;2023-04-06T05:50:08;-0.90;99.90
54260;DHT22;40172;53.022;7.012;2023-04-06T05:52:34;-0.90;99.90
54260;DHT22;40172;53.022;7.012;2023-04-06T05:54:59;-0.70;99.90
54260;DHT22;40172;53.022;7.012;2023-04-06T05:57:25;-0.80;99.90
54260;DHT22;40172;53.022;7.012;2023-04-06T05:59:50;-0.80;99.90
54260;DHT22;40172;53.022;7.012;2023-04-06T06:02:16;-0.80;99.90
54260;DHT22;40172;53.022;7.012;2023-04-06T06:04:41;-0.70;99.90
54260;DHT22;40172;53.022;7.012;2023-04-06T06:07:07;-0.70;99.90
54260;DHT22;40172;53.022;7.012;2023-04-06T06:09:32;-0.40;99.90
54260;DHT22;40172;53.022;7.012;2023-04-06T06:11:59;-0.20;99.90
54260;DHT22;40172;53.022;7.012;2023-04-06T06:14:24;-0.50;99.90
54260;DHT22;40172;53.022;7.012;2023-04-06T06:16:50;-0.40;99.90
54260;DHT22;40172;53.022;7.012;2023-04-06T06:19:15;-0.30;99.90
54260;DHT22;40172;53.022;7.012;2023-04-06T06:21:41;-0.20;99.90
54260;DHT22;40172;53.022;7.012;2023-04-06T06:24:07;0.20;99.90
54260;DHT22;40172;53.022;7.012;2023-04-06T06:26:32;0.20;99.90
54260;DHT22;40172;53.022;7.012;2023-04-06T06:29:00;0.10;99.90
54260;DHT22;40172;53.022;7.012;2023-04-06T06:31:26;0.20;99.90
54260;DHT22;40172;53.022;7.012;2023-04-06T06:33:51;0.40;99.90
54260;DHT22;40172;53.022;7.012;2023-04-06T06:36:17;0.40;99.90
54260;DHT22;40172;53.022;7.012;2023-04-06T06:38:43;0.60;99.90
54260;DHT22;40172;53.022;7.012;2023-04-06T06:41:09;0.70;99.90
54260;DHT22;40172;53.022;7.012;2023-04-06T06:43:35;0.80;99.90
54260;DHT22;40172;53.022;7.012;2023-04-06T06:46:01;0.90;99.90
54260;DHT22;40172;53.022;7.012;2023-04-06T06:48:26;1.10;99.90
54260;DHT22;40172;53.022;7.012;2023-04-06T06:50:52;1.20;99.90
54260;DHT22;40172;53.022;7.012;2023-04-06T06:53:19;1.30;99.90
54260;DHT22;40172;53.022;7.012;2023-04-06T06:55:45;1.50;99.90
54260;DHT22;40172;53.022;7.012;2023-04-06T06:58:10;1.60;99.90
54260;DHT22;40172;53.022;7.012;2023-04-06T07:00:36;1.70;99.90
54260;DHT22;40172;53.022;7.012;2023-04-06T07:03:02;1.90;99.90
54260;DHT22;40172;53.022;7.012;2023-04-06T07:05:27;2.00;99.90
54260;DHT22;40172;53.022;7.012;2023-04-06T07:07:54;2.20;99.90
54260;DHT22;40172;53.022;7.012;2023-04-06T07:10:19;2.30;99.90
54260;DHT22;40172;53.022;7.012;2023-04-06T07:12:45;2.50;99.90
54260;DHT22;40172;53.022;7.012;2023-04-06T07:15:11;2.60;99.90
54260;DHT22;40172;53.022;7.012;2023-04-06T07:17:36;2.80;99.90
54260;DHT22;40172;53.022;7.012;2023-04-06T07:20:02;3.00;99.90
54260;DHT22;40172;53.022;7.012;2023-04-06T07:22:28;3.20;99.90
54260;DHT22;40172;53.022;7.012;2023-04-06T07:24:53;3.30;99.90
54260;DHT22;40172;53.022;7.012;2023-04-06T07:27:20;3.50;99.90
54260;DHT22;40172;53.022;7.012;2023-04-06T07:29:45;3.60;99.90
54260;DHT22;40172;53.022;7.012;2023-04-06T07:32:11;3.80;99.90
54260;DHT22;40172;53.022;7.012;2023-04-06T07:34:37;4.00;99.90
54260;DHT22;40172;53.022;7.012;2023-04-06T07:37:02;4.10;99.90
54260;DHT22;40172;53.022;7.012;2023-04-06T07:39:28;4.30;99.90
54260;DHT22;40172;53.022;7.012;2023-04-06T07:41:54;4.50;99.90
54260;DHT22;40172;53.022;7.012;2023-04-06T07:44:19;4.60;99.90
54260;DHT22;40172;53.022;7.012;2023-04-06T07:46:45;4.80;99.90
54260;DHT22;40172;53.022;7.012;2023-04-06T07:49:11;4.90;99.90
54260;DHT22;40172;53.022;7.012;2023-04-06T07:51:37;5.00;99.90
54260;DHT22;40172;53.022;7.012;2023-04-06T07:54:03;5.10;99.90
54260;DHT22;40172;53.022;7.012;2023-04-06T07:56:29;5.30;99.90
54260;DHT22;40172;53.022;7.012;2023-04-06T07:58:54;5.40;99.90
54260;DHT22;40172;53.022;7.012;2023-04-06T08:01:22;5.50;99.90
54260;DHT22;40172;53.022;7.012;2023-04-06T08:03:48;5.70;99.90
54260;DHT22;40172;53.022;7.012;2023-04-06T08:06:14;5.80;99.90
54260;DHT22;40172;53.022;7.012;2023-04-06T08:08:40;5.90;99.90
54260;DHT22;40172;53.022;7.012;2023-04-06T08:11:06;6.10;99.90
54260;DHT22;40172;53.022;7.012;2023-04-06T08:13:31;6.20;99.90
54260;DHT22;40172;53.022;7.012;2023-04-06T08:15:57;6.30;99.90
54260;DHT22;40172;53.022;7.012;2023-04-06T08:18:24;6.50;99.90
54260;DHT22;40172;53.022;7.012;2023-04-06T08:20:49;6.60;99.90
54260;DHT22;40172;53.022;7.012;2023-04-06T08:23:15;6.80;99.90
54260;DHT22;40172;53.022;7.012;2023-04-06T08:25:42;6.90;99.90
54260;DHT22;40172;53.022;7.012;2023-04-06T08:28:07;7.00;99.90
54260;DHT22;40172;53.022;7.012;2023-04-06T08:30:34;7.20;99.90
54260;DHT22;40172;53.022;7.012;2023-04-06T08:33:00;7.40;99.90
54260;DHT22;40172;53.022;7.012;2023-04-06T08:35:27;7.60;99.90
54260;DHT22;40172;53.022;7.012;2023-04-06T08:37:52;7.70;99.90
54260;DHT22;40172;53.022;7.012;2023-04-06T08:40:18;7.90;99.90
54260;DHT22;40172;53.022;7.012;2023-04-06T08:42:58;8.00;99.90
54260;DHT22;40172;53.022;7.012;2023-04-06T08:45:25;8.20;99.90
54260;DHT22;40172;53.022;7.012;2023-04-06T08:47:51;8.30;99.90
54260;DHT22;40172;53.022;7.012;2023-04-06T08:50:18;8.50;99.90
54260;DHT22;40172;53.022;7.012;2023-04-06T08:52:46;8.70;99.90
54260;DHT22;40172;53.022;7.012;2023-04-06T08:55:12;8.80;99.90
54260;DHT22;40172;53.022;7.012;2023-04-06T08:57:38;9.00;99.90
54260;DHT22;40172;53.022;7.012;2023-04-06T09:00:05;9.10;99.90
54260;DHT22;40172;53.022;7.012;2023-04-06T09:02:31;9.20;99.90
54260;DHT22;40172;53.022;7.012;2023-04-06T09:04:57;9.30;99.90
54260;DHT22;40172;53.022;7.012;2023-04-06T09:07:23;9.40;99.60
54260;DHT22;40172;53.022;7.012;2023-04-06T09:09:49;9.50;99.70
54260;DHT22;40172;53.022;7.012;2023-04-06T09:12:30;9.60;99.90
54260;DHT22;40172;53.022;7.012;2023-04-06T09:14:57;9.90;99.80
54260;DHT22;40172;53.022;7.012;2023-04-06T09:17:30;10.00;99.40
54260;DHT22;40172;53.022;7.012;2023-04-06T09:19:59;10.10;98.20
54260;DHT22;40172;53.022;7.012;2023-04-06T09:22:25;10.30;96.50
54260;DHT22;40172;53.022;7.012;2023-04-06T09:24:53;10.40;95.80
54260;DHT22;40172;53.022;7.012;2023-04-06T09:27:32;10.50;95.00
54260;DHT22;40172;53.022;7.012;2023-04-06T09:30:11;10.60;92.40
54260;DHT22;40172;53.022;7.012;2023-04-06T09:35:13;10.70;90.60
54260;DHT22;40172;53.022;7.012;2023-04-06T09:37:39;10.80;91.10
54260;DHT22;40172;53.022;7.012;2023-04-06T09:40:06;10.90;90.80
54260;DHT22;40172;53.022;7.012;2023-04-06T09:42:33;11.10;90.30
54260;DHT22;40172;53.022;7.012;2023-04-06T09:44:59;11.20;89.50
54260;DHT22;40172;53.022;7.012;2023-04-06T09:47:25;11.20;89.90
54260;DHT22;40172;53.022;7.012;2023-04-06T09:49:56;11.30;90.30
54260;DHT22;40172;53.022;7.012;2023-04-06T09:52:27;11.40;90.20
54260;DHT22;40172;53.022;7.012;2023-04-06T09:54:55;11.50;88.40
54260;DHT22;40172;53.022;7.012;2023-04-06T09:57:52;11.50;85.40
54260;DHT22;40172;53.022;7.012;2023-04-06T10:00:20;11.60;85.40
54260;DHT22;40172;53.022;7.012;2023-04-06T10:02:58;11.60;86.40
54260;DHT22;40172;53.022;7.012;2023-04-06T10:05:36;11.70;84.30
54260;DHT22;40172;53.022;7.012;2023-04-06T10:08:06;11.80;85.70
54260;DHT22;40172;53.022;7.012;2023-04-06T10:10:33;12.00;84.10
54260;DHT22;40172;53.022;7.012;2023-04-06T10:12:59;12.20;84.50
54260;DHT22;40172;53.022;7.012;2023-04-06T10:15:27;12.40;83.90
54260;DHT22;40172;53.022;7.012;2023-04-06T10:17:52;12.50;82.30
54260;DHT22;40172;53.022;7.012;2023-04-06T10:20:34;12.60;80.50
54260;DHT22;40172;53.022;7.012;2023-04-06T10:23:06;12.70;78.90
54260;DHT22;40172;53.022;7.012;2023-04-06T10:25:34;12.60;77.40
54260;DHT22;40172;53.022;7.012;2023-04-06T10:28:06;12.70;78.00
54260;DHT22;40172;53.022;7.012;2023-04-06T10:30:33;12.70;79.00
54260;DHT22;40172;53.022;7.012;2023-04-06T10:32:59;12.70;77.10
54260;DHT22;40172;53.022;7.012;2023-04-06T10:35:36;12.80;76.50
54260;DHT22;40172;53.022;7.012;2023-04-06T10:38:04;12.90;77.50
54260;DHT22;40172;53.022;7.012;2023-04-06T10:40:30;12.90;78.20
54260;DHT22;40172;53.022;7.012;2023-04-06T10:43:10;13.00;78.80
54260;DHT22;40172;53.022;7.012;2023-04-06T10:45:37;13.00;78.00
54260;DHT22;40172;53.022;7.012;2023-04-06T10:48:16;13.00;78.30
54260;DHT22;40172;53.022;7.012;2023-04-06T10:50:49;13.10;75.80
54260;DHT22;40172;53.022;7.012;2023-04-06T10:53:27;13.10;76.70
54260;DHT22;40172;53.022;7.012;2023-04-06T10:55:56;13.10;74.50
54260;DHT22;40172;53.022;7.012;2023-04-06T10:58:26;13.10;74.50
54260;DHT22;40172;53.022;7.012;2023-04-06T11:00:54;13.10;74.60
54260;DHT22;40172;53.022;7.012;2023-04-06T11:03:20;13.30;76.20
54260;DHT22;40172;53.022;7.012;2023-04-06T11:05:50;13.30;74.50
54260;DHT22;40172;53.022;7.012;2023-04-06T11:08:32;13.40;74.60
54260;DHT22;40172;53.022;7.012;2023-04-06T11:11:09;13.50;74.40
54260;DHT22;40172;53.022;7.012;2023-04-06T11:13:42;13.50;72.50
54260;DHT22;40172;53.022;7.012;2023-04-06T11:16:15;13.60;71.60
54260;DHT22;40172;53.022;7.012;2023-04-06T11:19:00;13.70;73.70
54260;DHT22;40172;53.022;7.012;2023-04-06T11:21:49;14.70;71.30
54260;DHT22;40172;53.022;7.012;2023-04-06T11:24:20;13.80;71.00
54260;DHT22;40172;53.022;7.012;2023-04-06T11:26:51;13.90;72.10
54260;DHT22;40172;53.022;7.012;2023-04-06T11:29:21;14.00;72.00
54260;DHT22;40172;53.022;7.012;2023-04-06T11:32:05;14.10;70.80
54260;DHT22;40172;53.022;7.012;2023-04-06T11:34:37;14.30;70.00
54260;DHT22;40172;53.022;7.012;2023-04-06T11:37:08;14.30;69.80
54260;DHT22;40172;53.022;7.012;2023-04-06T11:39:54;14.30;71.30
54260;DHT22;40172;53.022;7.012;2023-04-06T11:42:22;14.70;69.60
54260;DHT22;40172;53.022;7.012;2023-04-06T11:44:51;14.30;70.30
54260;DHT22;40172;53.022;7.012;2023-04-06T11:47:18;14.30;68.70
54260;DHT22;40172;53.022;7.012;2023-04-06T11:49:44;14.20;68.20
54260;DHT22;40172;53.022;7.012;2023-04-06T11:52:24;14.20;67.60
54260;DHT22;40172;53.022;7.012;2023-04-06T11:54:51;14.20;65.90
54260;DHT22;40172;53.022;7.012;2023-04-06T11:57:18;14.10;67.10
54260;DHT22;40172;53.022;7.012;2023-04-06T11:59:45;14.10;68.40
54260;DHT22;40172;53.022;7.012;2023-04-06T12:02:10;14.20;69.40
54260;DHT22;40172;53.022;7.012;2023-04-06T12:04:36;14.30;69.30
54260;DHT22;40172;53.022;7.012;2023-04-06T12:07:02;14.30;68.40
54260;DHT22;40172;53.022;7.012;2023-04-06T12:09:28;14.40;68.80
54260;DHT22;40172;53.022;7.012;2023-04-06T12:11:54;14.50;68.00
54260;DHT22;40172;53.022;7.012;2023-04-06T12:14:21;14.60;67.70
54260;DHT22;40172;53.022;7.012;2023-04-06T12:16:47;14.60;67.00
54260;DHT22;40172;53.022;7.012;2023-04-06T12:19:13;14.60;67.10
54260;DHT22;40172;53.022;7.012;2023-04-06T12:21:38;14.60;65.50
54260;DHT22;40172;53.022;7.012;2023-04-06T12:24:05;14.60;66.40
54260;DHT22;40172;53.022;7.012;2023-04-06T12:26:31;14.60;66.80
54260;DHT22;40172;53.022;7.012;2023-04-06T12:28:57;14.70;67.30
54260;DHT22;40172;53.022;7.012;2023-04-06T12:31:23;14.70;66.60
54260;DHT22;40172;53.022;7.012;2023-04-06T12:33:51;14.80;66.30
54260;DHT22;40172;53.022;7.012;2023-04-06T12:36:18;14.80;66.50
54260;DHT22;40172;53.022;7.012;2023-04-06T12:38:48;14.90;66.90
54260;DHT22;40172;53.022;7.012;2023-04-06T12:41:14;14.90;67.20
54260;DHT22;40172;53.022;7.012;2023-04-06T12:43:41;15.00;65.90
54260;DHT22;40172;53.022;7.012;2023-04-06T12:46:08;14.90;66.20
54260;DHT22;40172;53.022;7.012;2023-04-06T12:48:34;14.90;65.50
54260;DHT22;40172;53.022;7.012;2023-04-06T12:51:02;14.90;65.80
54260;DHT22;40172;53.022;7.012;2023-04-06T12:53:28;14.90;65.10
54260;DHT22;40172;53.022;7.012;2023-04-06T12:55:55;14.90;65.70
54260;DHT22;40172;53.022;7.012;2023-04-06T12:58:21;14.80;65.00
54260;DHT22;40172;53.022;7.012;2023-04-06T13:00:48;14.70;65.80
54260;DHT22;40172;53.022;7.012;2023-04-06T13:03:14;14.50;65.40
54260;DHT22;40172;53.022;7.012;2023-04-06T13:05:47;14.50;64.90
54260;DHT22;40172;53.022;7.012;2023-04-06T13:08:13;14.30;64.40
54260;DHT22;40172;53.022;7.012;2023-04-06T13:10:50;14.20;64.70
54260;DHT22;40172;53.022;7.012;2023-04-06T13:13:20;14.10;66.10
54260;DHT22;40172;53.022;7.012;2023-04-06T13:15:45;14.00;66.60
54260;DHT22;40172;53.022;7.012;2023-04-06T13:18:11;13.90;66.60
54260;DHT22;40172;53.022;7.012;2023-04-06T13:20:37;13.90;66.30
54260;DHT22;40172;53.022;7.012;2023-04-06T13:23:03;13.90;67.30
54260;DHT22;40172;53.022;7.012;2023-04-06T13:25:29;13.90;67.10
54260;DHT22;40172;53.022;7.012;2023-04-06T13:27:55;13.90;68.00
54260;DHT22;40172;53.022;7.012;2023-04-06T13:30:20;13.90;67.90
54260;DHT22;40172;53.022;7.012;2023-04-06T13:32:46;13.80;67.80
54260;DHT22;40172;53.022;7.012;2023-04-06T13:35:12;13.80;68.50
54260;DHT22;40172;53.022;7.012;2023-04-06T13:37:38;13.70;67.70
54260;DHT22;40172;53.022;7.012;2023-04-06T13:40:04;13.70;68.50
54260;DHT22;40172;53.022;7.012;2023-04-06T13:42:31;13.70;67.90
54260;DHT22;40172;53.022;7.012;2023-04-06T13:44:57;13.70;67.00
54260;DHT22;40172;53.022;7.012;2023-04-06T13:47:22;13.60;67.00
54260;DHT22;40172;53.022;7.012;2023-04-06T13:49:50;13.60;66.30
54260;DHT22;40172;53.022;7.012;2023-04-06T13:52:16;13.60;67.40
54260;DHT22;40172;53.022;7.012;2023-04-06T13:54:42;13.60;67.10
54260;DHT22;40172;53.022;7.012;2023-04-06T13:57:08;13.60;66.40
54260;DHT22;40172;53.022;7.012;2023-04-06T13:59:34;13.60;66.60
54260;DHT22;40172;53.022;7.012;2023-04-06T14:02:01;13.60;66.80
54260;DHT22;40172;53.022;7.012;2023-04-06T14:04:27;13.60;67.50
54260;DHT22;40172;53.022;7.012;2023-04-06T14:06:53;13.60;67.20
54260;DHT22;40172;53.022;7.012;2023-04-06T14:09:19;13.60;67.30
54260;DHT22;40172;53.022;7.012;2023-04-06T14:11:44;13.80;67.30
54260;DHT22;40172;53.022;7.012;2023-04-06T14:14:10;13.80;67.80
54260;DHT22;40172;53.022;7.012;2023-04-06T14:16:36;13.80;66.80
54260;DHT22;40172;53.022;7.012;2023-04-06T14:19:02;13.80;66.50
54260;DHT22;40172;53.022;7.012;2023-04-06T14:21:28;13.70;66.50
54260;DHT22;40172;53.022;7.012;2023-04-06T14:23:53;13.70;67.10
54260;DHT22;40172;53.022;7.012;2023-04-06T14:26:19;13.70;66.80
54260;DHT22;40172;53.022;7.012;2023-04-06T14:28:45;13.70;67.50
54260;DHT22;40172;53.022;7.012;2023-04-06T14:31:13;13.60;66.40
54260;DHT22;40172;53.022;7.012;2023-04-06T14:33:40;13.50;65.60
54260;DHT22;40172;53.022;7.012;2023-04-06T14:36:07;13.40;66.10
54260;DHT22;40172;53.022;7.012;2023-04-06T14:38:32;13.30;66.70
54260;DHT22;40172;53.022;7.012;2023-04-06T14:40:58;13.20;67.20
54260;DHT22;40172;53.022;7.012;2023-04-06T14:43:24;13.10;67.60
54260;DHT22;40172;53.022;7.012;2023-04-06T14:45:50;13.10;68.20
54260;DHT22;40172;53.022;7.012;2023-04-06T14:48:16;13.10;69.10
54260;DHT22;40172;53.022;7.012;2023-04-06T14:50:52;13.00;68.80
54260;DHT22;40172;53.022;7.012;2023-04-06T14:53:19;13.00;68.60
54260;DHT22;40172;53.022;7.012;2023-04-06T14:55:44;13.00;68.00
54260;DHT22;40172;53.022;7.012;2023-04-06T14:58:10;12.90;68.10
54260;DHT22;40172;53.022;7.012;2023-04-06T15:00:38;12.90;67.90
54260;DHT22;40172;53.022;7.012;2023-04-06T15:03:04;12.90;69.30
54260;DHT22;40172;53.022;7.012;2023-04-06T15:05:29;12.80;68.70
54260;DHT22;40172;53.022;7.012;2023-04-06T15:07:56;12.80;68.70
54260;DHT22;40172;53.022;7.012;2023-04-06T15:10:22;12.70;69.00
54260;DHT22;40172;53.022;7.012;2023-04-06T15:12:47;12.70;70.50
54260;DHT22;40172;53.022;7.012;2023-04-06T15:15:13;12.60;70.80
54260;DHT22;40172;53.022;7.012;2023-04-06T15:17:38;12.60;73.60
54260;DHT22;40172;53.022;7.012;2023-04-06T15:20:05;12.50;74.80
54260;DHT22;40172;53.022;7.012;2023-04-06T15:22:31;12.40;76.40
54260;DHT22;40172;53.022;7.012;2023-04-06T15:24:56;12.30;76.40
54260;DHT22;40172;53.022;7.012;2023-04-06T15:27:22;12.20;78.60
54260;DHT22;40172;53.022;7.012;2023-04-06T15:29:48;12.10;79.40
54260;DHT22;40172;53.022;7.012;2023-04-06T15:32:13;12.10;80.60
54260;DHT22;40172;53.022;7.012;2023-04-06T15:34:39;12.00;80.00
54260;DHT22;40172;53.022;7.012;2023-04-06T15:37:05;12.00;80.40
54260;DHT22;40172;53.022;7.012;2023-04-06T15:39:31;11.80;80.20